createdAt,value
2023-05-03T00:01:03.268Z,6.20
2023-05-03T00:06:12.928Z,5.98
2023-05-03T00:11:17.138Z,5.97
2023-05-03T00:16:20.598Z,5.74
2023-05-03T00:21:23.456Z,5.79
2023-05-03T00:26:28.900Z,5.86
2023-05-03T00:31:31.832Z,5.83
2023-05-03T00:36:36.943Z,5.73
2023-05-03T00:41:41.613Z,5.63
2023-05-03T00:46:44.493Z,5.53
2023-05-03T00:51:47.535Z,5.35
2023-05-03T00:56:52.148Z,5.36
2023-05-03T01:01:55.799Z,5.21
2023-05-03T01:07:10.729Z,5.16
2023-05-03T01:12:29.729Z,5.05
2023-05-03T01:17:37.949Z,4.80
2023-05-03T01:22:47.983Z,4.68
2023-05-03T01:27:52.141Z,4.77
2023-05-03T01:33:02.038Z,4.72
2023-05-03T01:38:06.056Z,4.53
2023-05-03T01:43:13.354Z,4.52
2023-05-03T01:48:17.275Z,4.37
2023-05-03T01:53:20.080Z,4.29
2023-05-03T01:58:24.240Z,4.36
2023-05-03T02:03:26.998Z,4.24
2023-05-03T02:08:29.772Z,3.99
2023-05-03T02:13:33.913Z,3.67
2023-05-03T02:18:36.810Z,3.59
2023-05-03T02:23:39.719Z,3.84
2023-05-03T02:28:43.867Z,4.14
2023-05-03T02:33:46.724Z,4.23
2023-05-03T02:38:49.683Z,4.16
2023-05-03T02:43:53.948Z,4.06
2023-05-03T02:48:56.810Z,4.13
2023-05-03T02:53:59.683Z,4.10
2023-05-03T02:59:03.953Z,3.99
2023-05-03T03:04:08.079Z,3.91
2023-05-03T03:09:12.541Z,3.80
2023-05-03T03:14:17.869Z,3.66
2023-05-03T03:19:20.753Z,3.51
2023-05-03T03:24:23.633Z,3.63
2023-05-03T03:29:31.214Z,3.73
2023-05-03T03:34:34.431Z,3.70
2023-05-03T03:39:39.124Z,3.58
2023-05-03T03:44:43.680Z,3.64
2023-05-03T03:49:46.530Z,3.61
2023-05-03T03:54:49.441Z,3.64
2023-05-03T03:59:53.887Z,3.58
2023-05-03T04:04:56.873Z,3.73
2023-05-03T04:09:59.936Z,3.79
2023-05-03T04:15:04.715Z,3.84
2023-05-03T04:20:11.089Z,3.78
2023-05-03T04:25:17.041Z,3.73
2023-05-03T04:30:25.836Z,3.79
2023-05-03T04:35:31.326Z,3.94
2023-05-03T04:40:37.560Z,3.93
2023-05-03T04:45:45.544Z,4.01
2023-05-03T04:50:53.802Z,4.12
2023-05-03T04:55:58.584Z,4.12
2023-05-03T05:01:03.588Z,4.23
2023-05-03T05:06:09.917Z,4.31
2023-05-03T05:11:15.721Z,4.43
2023-05-03T05:16:20.289Z,4.44
2023-05-03T05:21:28.502Z,4.46
2023-05-03T05:26:32.681Z,4.51
2023-05-03T05:31:37.631Z,4.46
2023-05-03T05:36:43.122Z,4.44
2023-05-03T05:41:46.434Z,4.61
2023-05-03T05:46:50.875Z,4.79
2023-05-03T05:51:55.356Z,5.63
2023-05-03T05:56:58.992Z,5.82
2023-05-03T06:02:03.796Z,6.39
2023-05-03T06:07:06.836Z,6.41
2023-05-03T06:12:10.402Z,6.38
2023-05-03T06:17:18.808Z,6.67
2023-05-03T06:22:21.638Z,6.81
2023-05-03T06:27:25.826Z,6.98
2023-05-03T06:32:31.431Z,7.16
2023-05-03T06:37:34.686Z,7.33
2023-05-03T06:42:37.536Z,7.68
2023-05-03T06:47:50.224Z,7.94
2023-05-03T06:52:55.282Z,8.21
2023-05-03T06:57:58.105Z,8.26
2023-05-03T07:03:02.337Z,8.62
2023-05-03T07:08:05.883Z,8.80
2023-05-03T07:13:08.684Z,9.04
2023-05-03T07:18:12.925Z,9.40
2023-05-03T07:23:16.094Z,9.77
2023-05-03T07:28:18.888Z,9.72
2023-05-03T07:33:23.339Z,9.69
2023-05-03T07:38:26.279Z,10.39
2023-05-03T07:43:29.330Z,11.14
2023-05-03T07:48:33.525Z,11.16
2023-05-03T07:53:36.444Z,11.55
2023-05-03T07:58:40.842Z,11.77
2023-05-03T08:03:46.160Z,12.16
2023-05-03T08:08:49.078Z,12.56
2023-05-03T08:13:51.928Z,13.12
2023-05-03T08:18:56.141Z,12.70
2023-05-03T08:23:59.258Z,12.45
2023-05-03T08:29:03.452Z,12.42
2023-05-03T08:34:07.946Z,12.72
2023-05-03T08:39:11.510Z,12.98
2023-05-03T08:44:22.192Z,13.35
2023-05-03T08:49:26.989Z,13.08
2023-05-03T08:54:30.726Z,13.50
2023-05-03T08:59:33.514Z,14.10
2023-05-03T09:04:37.679Z,14.03
2023-05-03T09:09:40.699Z,13.38
2023-05-03T09:14:44.641Z,13.90
2023-05-03T09:19:56.233Z,14.73
2023-05-03T09:25:01.004Z,15.26
2023-05-03T09:30:19.361Z,14.86
2023-05-03T09:35:23.856Z,14.37
2023-05-03T09:40:27.082Z,13.92
2023-05-03T09:45:31.447Z,14.62
2023-05-03T09:50:36.839Z,14.87
2023-05-03T09:55:41.826Z,14.92
2023-05-03T10:00:50.966Z,15.68
2023-05-03T10:05:57.049Z,15.52
2023-05-03T10:11:00.383Z,15.74
2023-05-03T10:16:08.360Z,16.16
2023-05-03T10:21:21.008Z,15.77
2023-05-03T10:26:25.018Z,16.23
2023-05-03T10:31:46.310Z,16.82
2023-05-03T10:36:53.270Z,16.56
2023-05-03T10:42:01.431Z,16.67
2023-05-03T10:47:12.442Z,17.12
2023-05-03T10:52:48.632Z,17.38
2023-05-03T10:57:55.391Z,17.30
2023-05-03T11:03:32.249Z,17.41
2023-05-03T11:08:37.830Z,17.02
2023-05-03T11:13:42.278Z,17.78
2023-05-03T11:18:45.923Z,18.34
2023-05-03T11:23:48.714Z,18.59
2023-05-03T11:28:54.500Z,18.62
2023-05-03T11:33:57.954Z,18.18
2023-05-03T11:39:01.367Z,18.88
2023-05-03T11:44:15.966Z,18.70
2023-05-03T11:49:20.304Z,19.24
2023-05-03T11:54:26.900Z,19.50
2023-05-03T11:59:39.504Z,20.25
2023-05-03T12:04:45.488Z,19.76
2023-05-03T12:10:00.713Z,19.12
2023-05-03T12:15:16.235Z,19.72
2023-05-03T12:25:34.092Z,19.94
2023-05-03T12:30:40.665Z,19.55
2023-05-03T12:35:46.764Z,19.93
2023-05-03T12:40:51.076Z,21.01
2023-05-03T12:46:20.291Z,20.62
2023-05-03T12:51:20.671Z,20.66
2023-05-03T12:56:32.160Z,20.95
2023-05-03T13:02:40.854Z,20.18
2023-05-03T13:07:01.558Z,20.45
2023-05-03T13:12:04.925Z,20.93
2023-05-03T13:17:09.219Z,21.41
2023-05-03T13:22:12.875Z,21.74
2023-05-03T13:27:16.360Z,21.16
2023-05-03T13:32:20.599Z,21.61
2023-05-03T13:37:24.406Z,21.92
2023-05-03T13:42:27.267Z,21.93
2023-05-03T13:47:47.216Z,21.84
2023-05-03T13:52:55.177Z,21.70
2023-05-03T13:57:58.052Z,22.03
2023-05-03T14:03:02.396Z,21.82
2023-05-03T14:08:06.088Z,21.23
2023-05-03T14:13:09.063Z,21.94
2023-05-03T14:18:13.496Z,21.88
2023-05-03T14:23:16.928Z,21.75
2023-05-03T14:28:20.209Z,22.26
2023-05-03T14:33:24.526Z,21.76
2023-05-03T14:38:27.515Z,21.42
2023-05-03T14:43:31.448Z,21.26
2023-05-03T14:48:35.704Z,21.47
2023-05-03T14:53:38.596Z,21.00
2023-05-03T14:58:41.621Z,21.83
2023-05-03T15:03:45.870Z,22.02
2023-05-03T15:08:48.671Z,21.29
2023-05-03T15:13:51.546Z,21.04
2023-05-03T15:18:56.070Z,20.83
2023-05-03T15:23:58.943Z,20.67
2023-05-03T15:29:01.796Z,20.50
2023-05-03T15:34:07.127Z,20.83
2023-05-03T15:39:10.153Z,20.55
2023-05-03T15:44:14.861Z,20.14
2023-05-03T15:49:19.427Z,20.44
2023-05-03T15:54:22.383Z,20.81
2023-05-03T15:59:25.127Z,20.87
2023-05-03T16:04:29.390Z,20.83
2023-05-03T16:09:32.569Z,20.73
2023-05-03T16:14:36.320Z,20.47
2023-05-03T16:19:40.521Z,20.90
2023-05-03T16:24:43.318Z,20.49
2023-05-03T16:29:46.163Z,20.13
2023-05-03T16:34:50.877Z,19.21
2023-05-03T16:39:53.896Z,19.38
2023-05-03T16:44:56.981Z,19.82
2023-05-03T16:50:01.265Z,19.61
2023-05-03T16:55:04.146Z,19.88
2023-05-03T17:00:09.762Z,20.35
2023-05-03T17:05:15.268Z,22.66
2023-05-03T17:10:18.029Z,26.57
2023-05-03T17:15:21.050Z,26.13
2023-05-03T17:20:25.258Z,25.87
2023-05-03T17:25:28.245Z,23.74
2023-05-03T17:30:31.205Z,23.26
2023-05-03T17:35:35.398Z,24.12
2023-05-03T17:40:41.001Z,22.35
2023-05-03T17:45:45.045Z,20.79
2023-05-03T17:50:58.614Z,17.87
2023-05-03T17:56:01.467Z,16.73
2023-05-03T18:01:04.780Z,16.32
2023-05-03T18:06:12.058Z,15.55
2023-05-03T18:11:14.937Z,15.04
2023-05-03T18:16:17.918Z,14.75
2023-05-03T18:21:23.526Z,14.53
2023-05-03T18:26:26.344Z,14.33
2023-05-03T18:31:29.289Z,14.16
2023-05-03T18:36:33.615Z,13.90
2023-05-03T18:41:37.284Z,13.65
2023-05-03T18:46:40.347Z,13.51
2023-05-03T18:51:44.836Z,13.36
2023-05-03T18:56:47.722Z,13.22
2023-05-03T19:01:50.896Z,13.01
2023-05-03T19:06:55.055Z,12.93
2023-05-03T19:11:58.663Z,12.77
2023-05-03T19:17:01.550Z,12.66
2023-05-03T19:22:06.006Z,12.50
2023-05-03T19:27:08.830Z,12.37
2023-05-03T19:32:12.033Z,12.36
2023-05-03T19:37:16.363Z,12.28
2023-05-03T19:42:19.142Z,12.22
2023-05-03T19:47:22.365Z,12.12
2023-05-03T19:52:26.558Z,12.08
2023-05-03T19:57:29.608Z,11.93
2023-05-03T20:02:32.586Z,11.82
2023-05-03T20:07:37.453Z,11.71
2023-05-03T20:12:40.300Z,11.61
2023-05-03T20:17:43.221Z,11.47
2023-05-03T20:22:48.842Z,11.36
2023-05-03T20:27:51.689Z,11.23
2023-05-03T20:32:54.506Z,11.16
2023-05-03T20:37:58.867Z,11.12
2023-05-03T20:43:02.287Z,11.15
2023-05-03T20:48:05.695Z,11.06
2023-05-03T20:53:10.296Z,11.03
2023-05-03T20:58:15.234Z,10.90
2023-05-03T21:03:18.159Z,10.85
2023-05-03T21:08:22.446Z,10.79
2023-05-03T21:13:25.311Z,10.65
2023-05-03T21:18:28.147Z,10.58
2023-05-03T21:23:32.337Z,10.54
2023-05-03T21:28:35.142Z,10.47
2023-05-03T21:33:38.211Z,10.07
2023-05-03T21:38:42.497Z,9.99
2023-05-03T21:43:45.616Z,9.85
2023-05-03T21:48:48.385Z,9.81
2023-05-03T21:53:52.725Z,9.57
2023-05-03T21:58:55.510Z,9.49
2023-05-03T22:03:58.414Z,9.30
2023-05-03T22:09:02.708Z,9.37
2023-05-03T22:14:08.336Z,9.20
2023-05-03T22:19:11.992Z,9.01
2023-05-03T22:24:16.075Z,9.00
2023-05-03T22:29:19.048Z,8.92
2023-05-03T22:34:22.197Z,8.88
2023-05-03T22:39:26.702Z,9.02
2023-05-03T22:44:29.477Z,9.21
2023-05-03T22:49:32.271Z,9.42
2023-05-03T22:54:36.527Z,9.19
2023-05-03T22:59:39.307Z,9.04
2023-05-03T23:04:41.890Z,8.96
2023-05-03T23:09:48.479Z,8.93
2023-05-03T23:14:51.218Z,8.93
2023-05-03T23:19:54.582Z,8.70
2023-05-03T23:24:59.019Z,8.58
2023-05-03T23:30:01.980Z,8.46
2023-05-03T23:35:05.986Z,8.41
2023-05-03T23:40:12.921Z,8.44
2023-05-03T23:45:15.763Z,8.31
2023-05-03T23:50:18.608Z,8.32
2023-05-03T23:55:22.868Z,8.39
